Time;durP1;ratioP1;P1;durP2;ratioP2;P2;SDS_P1;SDS_P2;PMS_P1;PMS_P2;Temp;Humidity;BMP_temperature;BMP_pressure;BME280_temperature;BME280_humidity;BME280_pressure;Samples;Min_cycle;Max_cycle;Signal;HPM_P1;HPM_P2
2022/02/26 00:01:31;;;;;;;;;;;;;;;0.22;100.00;98876.50;1692368;83;25979;-85
2022/02/26 00:03:57;;;;;;;;;;;;;;;0.20;100.00;98872.28;1711454;82;24441;-83
2022/02/26 00:06:23;;;;;;;;;;;;;;;0.15;100.00;98878.82;1704193;83;20328;-83
2022/02/26 00:08:49;;;;;;;;;;;;;;;0.17;100.00;98880.05;1700947;83;24713;-84
2022/02/26 00:11:15;;;;;;;;;;;;;;;0.18;100.00;98886.47;1706019;83;21965;-84
2022/02/26 00:13:41;;;;;;;;;;;;;;;0.16;100.00;98893.83;1707870;81;25949;-83
2022/02/26 00:16:07;;;;;;;;;;;;;;;0.11;100.00;98895.65;1707934;82;24790;-84
2022/02/26 00:18:35;;;;;;;;;;;;;;;0.08;100.00;98890.55;1698083;82;20308;-83
2022/02/26 00:21:02;;;;;;;;;;;;;;;0.06;100.00;98897.00;1705307;82;25432;-86
2022/02/26 00:23:29;;;;;;;;;;;;;;;0.05;100.00;98899.19;1702314;83;22036;-84
2022/02/26 00:25:55;;;;;;;;;;;;;;;0.03;100.00;98899.66;1705943;83;25994;-83
2022/02/26 00:28:22;;;;;;;;;;;;;;;0.04;100.00;98905.64;1711459;83;24476;-83
2022/02/26 00:30:51;;;;;;;;;;;;;;;0.07;100.00;98901.27;1710297;83;20497;-84
2022/02/26 00:33:17;;;;;;;;;;;;;;;0.11;100.00;98901.61;1690596;83;24724;-83
2022/02/26 00:35:43;;;;;;;;;;;;;;;0.14;100.00;98900.28;1703011;82;21930;-84
2022/02/26 00:38:09;;;;;;;;;;;;;;;0.17;100.00;98904.50;1674741;84;26049;-84
2022/02/26 00:40:35;;;;;;;;;;;;;;;0.21;100.00;98906.16;1675214;85;24516;-83
2022/02/26 00:43:01;;;;;;;;;;;;;;;0.23;100.00;98910.81;1685136;83;20185;-83
2022/02/26 00:45:28;;;;;;;;;;;;;;;0.24;100.00;98907.36;1685350;83;25008;-84
2022/02/26 00:47:56;;;;;;;;;;;;;;;0.24;100.00;98906.92;1689165;83;21933;-84
2022/02/26 00:50:23;;;;;;;;;;;;;;;0.26;100.00;98907.75;1688544;83;26037;-85
2022/02/26 00:52:49;;;;;;;;;;;;;;;0.24;100.00;98912.51;1691112;83;24540;-84
2022/02/26 00:55:16;;;;;;;;;;;;;;;0.22;100.00;98908.67;1687186;83;20305;-83
2022/02/26 00:57:42;;;;;;;;;;;;;;;0.20;100.00;98896.30;1685649;83;25808;-83
2022/02/26 01:00:13;;;;;;;;;;;;;;;0.19;100.00;98911.32;1693769;83;21983;-83
2022/02/26 01:02:37;;;;;;;;;;;;;;;0.19;100.00;98904.89;1699738;82;25990;-83
2022/02/26 01:05:03;;;;;;;;;;;;;;;0.21;100.00;98906.16;1696591;83;24509;-82
2022/02/26 01:07:31;;;;;;;;;;;;;;;0.29;100.00;98914.11;1705403;83;20234;-82
2022/02/26 01:09:58;;;;;;;;;;;;;;;0.35;100.00;98913.98;1696935;83;24765;-83
2022/02/26 01:12:24;;;;;;;;;;;;;;;0.37;100.00;98916.53;1676835;83;22111;-83
2022/02/26 01:14:51;;;;;;;;;;;;;;;0.38;100.00;98919.05;1701937;83;26921;-83
2022/02/26 01:17:20;;;;;;;;;;;;;;;0.37;100.00;98908.38;1678340;83;25344;-84
2022/02/26 01:19:48;;;;;;;;;;;;;;;0.39;100.00;98914.75;1673889;85;20199;-84
2022/02/26 01:22:14;;;;;;;;;;;;;;;0.35;100.00;98916.55;1674809;85;24753;-83
2022/02/26 01:24:46;;;;;;;;;;;;;;;0.36;100.00;98919.55;1675435;84;22713;-83
2022/02/26 01:27:12;;;;;;;;;;;;;;;0.35;100.00;98921.70;1669625;85;26041;-84
2022/02/26 01:29:42;;;;;;;;;;;;;;;0.32;100.00;98924.36;1701597;83;24416;-83
2022/02/26 01:32:06;;;;;;;;;;;;;;;0.32;100.00;98926.94;1655303;85;20213;-83
2022/02/26 01:34:34;;;;;;;;;;;;;;;0.33;100.00;98926.02;1649989;84;21786;-83
2022/02/26 01:37:01;;;;;;;;;;;;;;;0.32;100.00;98923.50;1668595;85;22918;-84
2022/02/26 01:39:27;;;;;;;;;;;;;;;0.28;100.00;98931.71;1703267;84;26147;-84
2022/02/26 01:41:55;;;;;;;;;;;;;;;0.27;100.00;98923.58;1703422;83;24474;-84
2022/02/26 01:44:22;;;;;;;;;;;;;;;0.28;100.00;98929.14;1682014;83;20296;-83
2022/02/26 01:46:49;;;;;;;;;;;;;;;0.26;100.00;98930.06;1691908;84;24881;-84
2022/02/26 01:49:15;;;;;;;;;;;;;;;0.24;100.00;98924.94;1690286;84;22039;-84
2022/02/26 01:51:41;;;;;;;;;;;;;;;0.26;100.00;98926.20;1686394;84;26007;-84
2022/02/26 01:54:08;;;;;;;;;;;;;;;0.24;100.00;98929.23;1689526;84;24606;-83
2022/02/26 01:56:36;;;;;;;;;;;;;;;0.24;100.00;98921.52;1687582;83;20263;-84
2022/02/26 01:59:02;;;;;;;;;;;;;;;0.25;100.00;98919.36;1696271;83;24817;-83
2022/02/26 02:01:28;;;;;;;;;;;;;;;0.20;100.00;98923.31;1693907;84;22030;-83
2022/02/26 02:03:54;;;;;;;;;;;;;;;0.19;100.00;98922.05;1698787;83;26223;-84
2022/02/26 02:06:21;;;;;;;;;;;;;;;0.17;100.00;98923.36;1676084;85;20948;-83
2022/02/26 02:08:47;;;;;;;;;;;;;;;0.16;100.00;98924.27;1689446;84;20585;-83
2022/02/26 02:11:13;;;;;;;;;;;;;;;0.14;100.00;98931.16;1694639;84;24760;-83
2022/02/26 02:13:39;;;;;;;;;;;;;;;0.11;100.00;98926.06;1676340;84;20818;-83
2022/02/26 02:16:06;;;;;;;;;;;;;;;0.11;100.00;98932.48;1679597;83;26002;-83
2022/02/26 02:18:32;;;;;;;;;;;;;;;0.12;100.00;98929.48;1697542;84;24556;-82
2022/02/26 02:20:58;;;;;;;;;;;;;;;0.11;100.00;98934.25;1698450;83;20525;-82
2022/02/26 02:23:25;;;;;;;;;;;;;;;0.11;100.00;98932.48;1696179;84;24842;-83
2022/02/26 02:25:52;;;;;;;;;;;;;;;0.09;100.00;98928.27;1693921;83;21966;-83
2022/02/26 02:28:19;;;;;;;;;;;;;;;0.07;100.00;98928.29;1695702;84;26560;-82
2022/02/26 02:30:45;;;;;;;;;;;;;;;0.05;100.00;98929.22;1695551;83;24515;-83
2022/02/26 02:33:11;;;;;;;;;;;;;;;0.05;100.00;98930.50;1694291;83;20206;-83
2022/02/26 02:35:38;;;;;;;;;;;;;;;0.05;100.00;98930.06;1695312;84;24715;-84
2022/02/26 02:38:09;;;;;;;;;;;;;;;0.07;100.00;98937.73;1691528;84;21891;-84
2022/02/26 02:40:38;;;;;;;;;;;;;;;0.08;100.00;98936.42;1685298;84;22843;-84
2022/02/26 02:43:05;;;;;;;;;;;;;;;0.06;100.00;98936.88;1695340;83;24406;-84
2022/02/26 02:45:34;;;;;;;;;;;;;;;0.04;100.00;98943.80;1697087;84;20241;-84
2022/02/26 02:48:01;;;;;;;;;;;;;;;-0.01;100.00;98940.04;1694644;83;24853;-84
2022/02/26 02:50:27;;;;;;;;;;;;;;;-0.05;100.00;98940.95;1696253;84;22691;-83
2022/02/26 02:52:53;;;;;;;;;;;;;;;-0.06;100.00;98946.16;1691772;83;25936;-84
2022/02/26 02:55:21;;;;;;;;;;;;;;;-0.07;100.00;98944.02;1698768;84;24441;-84
2022/02/26 02:57:48;;;;;;;;;;;;;;;-0.09;100.00;98953.47;1698086;83;20288;-84
2022/02/26 03:00:15;;;;;;;;;;;;;;;-0.10;100.00;98944.48;1690443;83;24908;-84
2022/02/26 03:02:42;;;;;;;;;;;;;;;-0.10;100.00;98944.05;1697927;83;21930;-84
2022/02/26 03:05:09;;;;;;;;;;;;;;;-0.11;100.00;98944.11;1689942;83;26049;-84
2022/02/26 03:07:35;;;;;;;;;;;;;;;-0.13;100.00;98946.70;1698525;84;24397;-84
2022/02/26 03:10:02;;;;;;;;;;;;;;;-0.13;100.00;98951.84;1697327;84;20218;-84
2022/02/26 03:12:28;;;;;;;;;;;;;;;-0.15;100.00;98946.30;1694803;83;24801;-84
2022/02/26 03:14:54;;;;;;;;;;;;;;;-0.19;100.00;98951.95;1693117;83;22222;-84
2022/02/26 03:17:21;;;;;;;;;;;;;;;-0.20;100.00;98956.68;1710305;82;25983;-84
2022/02/26 03:19:49;;;;;;;;;;;;;;;-0.20;100.00;98963.11;1710141;82;24413;-84
2022/02/26 03:22:15;;;;;;;;;;;;;;;-0.18;100.00;98963.94;1701402;82;20241;-84
2022/02/26 03:24:41;;;;;;;;;;;;;;;-0.15;100.00;98966.88;1734173;81;24797;-84
2022/02/26 03:27:07;;;;;;;;;;;;;;;-0.13;100.00;98969.84;1712598;81;21949;-84
2022/02/26 03:29:33;;;;;;;;;;;;;;;-0.11;100.00;98964.22;1715694;82;21092;-84
2022/02/26 03:31:59;;;;;;;;;;;;;;;-0.12;100.00;98967.69;1709719;82;25117;-84
2022/02/26 03:34:26;;;;;;;;;;;;;;;-0.09;100.00;98966.77;1694431;81;20513;-84
2022/02/26 03:36:53;;;;;;;;;;;;;;;-0.07;100.00;98968.45;1713564;83;24760;-84
2022/02/26 03:39:21;;;;;;;;;;;;;;;-0.08;100.00;98968.47;1702160;83;20199;-84
2022/02/26 03:41:47;;;;;;;;;;;;;;;-0.11;100.00;98968.55;1694054;83;26079;-84
2022/02/26 03:44:13;;;;;;;;;;;;;;;-0.11;100.00;98973.69;1703874;83;24382;-84
2022/02/26 03:46:39;;;;;;;;;;;;;;;-0.10;100.00;98972.78;1694507;83;20227;-84
2022/02/26 03:49:06;;;;;;;;;;;;;;;-0.09;100.00;98979.20;1693930;83;24815;-84
2022/02/26 03:51:33;;;;;;;;;;;;;;;-0.07;100.00;98981.75;1694571;82;22174;-83
2022/02/26 03:54:00;;;;;;;;;;;;;;;-0.10;100.00;98981.78;1700068;83;25989;-84
2022/02/26 03:56:27;;;;;;;;;;;;;;;-0.11;100.00;98991.69;1691225;83;24427;-83
2022/02/26 03:58:54;;;;;;;;;;;;;;;-0.10;100.00;98988.22;1691056;83;20156;-84
2022/02/26 04:01:22;;;;;;;;;;;;;;;-0.11;100.00;98995.55;1705113;83;25445;-84
2022/02/26 04:03:48;;;;;;;;;;;;;;;-0.12;100.00;98995.13;1695112;83;21959;-84
2022/02/26 04:06:15;;;;;;;;;;;;;;;-0.07;100.00;99008.76;1701894;82;26003;-84
2022/02/26 04:08:41;;;;;;;;;;;;;;;-0.04;100.00;98998.39;1695303;82;24395;-84
2022/02/26 04:11:07;;;;;;;;;;;;;;;-0.07;100.00;98999.75;1697277;83;20216;-84
2022/02/26 04:13:35;;;;;;;;;;;;;;;-0.07;100.00;98999.75;1692777;83;24741;-84
2022/02/26 04:16:04;;;;;;;;;;;;;;;-0.06;100.00;99013.03;1695650;82;22021;-84
2022/02/26 04:18:30;;;;;;;;;;;;;;;-0.10;100.00;99007.08;1688039;82;26595;-84
2022/02/26 04:20:56;;;;;;;;;;;;;;;-0.10;100.00;99012.66;1685683;83;24596;-85
2022/02/26 04:23:23;;;;;;;;;;;;;;;-0.11;100.00;99012.27;1686278;84;20188;-84
2022/02/26 04:25:49;;;;;;;;;;;;;;;-0.12;100.00;99006.71;1687571;84;24805;-85
2022/02/26 04:28:15;;;;;;;;;;;;;;;-0.14;100.00;99010.58;1684172;84;21927;-82
2022/02/26 04:30:42;;;;;;;;;;;;;;;-0.19;100.00;99014.11;1693044;84;20986;-82
2022/02/26 04:33:08;;;;;;;;;;;;;;;-0.22;100.00;99019.33;1677895;84;24565;-83
2022/02/26 04:35:35;;;;;;;;;;;;;;;-0.21;100.00;99024.85;1678608;84;20246;-83
2022/02/26 04:38:01;;;;;;;;;;;;;;;-0.21;100.00;99024.42;1684827;84;24791;-82
2022/02/26 04:40:27;;;;;;;;;;;;;;;-0.22;100.00;99029.61;1683512;84;22136;-83
2022/02/26 04:42:53;;;;;;;;;;;;;;;-0.20;100.00;99026.56;1680962;83;26676;-82
2022/02/26 04:45:19;;;;;;;;;;;;;;;-0.20;100.00;99029.98;1684340;84;20395;-82
2022/02/26 04:47:46;;;;;;;;;;;;;;;-0.19;100.00;99036.83;1683293;84;20229;-82
2022/02/26 04:50:13;;;;;;;;;;;;;;;-0.21;100.00;99037.71;1690325;84;25417;-82
2022/02/26 04:52:40;;;;;;;;;;;;;;;-0.23;100.00;99031.33;1682437;84;22085;-82
2022/02/26 04:55:08;;;;;;;;;;;;;;;-0.22;100.00;99036.05;1665907;84;26069;-82
2022/02/26 04:57:34;;;;;;;;;;;;;;;-0.21;100.00;99046.72;1671988;84;24390;-82
2022/02/26 05:00:00;;;;;;;;;;;;;;;-0.20;100.00;99058.70;1685815;84;20235;-82
2022/02/26 05:02:28;;;;;;;;;;;;;;;-0.20;100.00;99061.28;1687069;84;24797;-84
2022/02/26 05:04:54;;;;;;;;;;;;;;;-0.22;100.00;99065.62;1684692;84;22072;-82
2022/02/26 05:07:21;;;;;;;;;;;;;;;-0.22;100.00;99071.58;1681830;84;26051;-83
2022/02/26 05:09:47;;;;;;;;;;;;;;;-0.20;100.00;99083.14;1682819;84;24545;-83
2022/02/26 05:12:13;;;;;;;;;;;;;;;-0.15;100.00;99092.91;1688471;84;20571;-83
2022/02/26 05:14:39;;;;;;;;;;;;;;;-0.13;100.00;99092.46;1685191;83;24709;-83
2022/02/26 05:17:05;;;;;;;;;;;;;;;-0.06;100.00;99096.64;1681858;83;21932;-83
2022/02/26 05:19:32;;;;;;;;;;;;;;;-0.02;100.00;99100.85;1699167;83;21010;-83
2022/02/26 05:21:58;;;;;;;;;;;;;;;-0.01;100.00;99103.84;1695010;82;24589;-83
2022/02/26 05:24:24;;;;;;;;;;;;;;;-0.01;100.00;99108.55;1700000;83;20256;-82
2022/02/26 05:26:50;;;;;;;;;;;;;;;-0.03;100.00;99110.72;1698490;82;24778;-81
2022/02/26 05:29:19;;;;;;;;;;;;;;;-0.07;100.00;99109.08;1689952;83;22037;-81
2022/02/26 05:32:05;;;;;;;;;;;;;;;-0.12;100.00;99109.16;1691662;83;26808;-81
2022/02/26 05:34:32;;;;;;;;;;;;;;;-0.16;100.00;99113.92;1708977;83;25283;-81
2022/02/26 05:37:07;;;;;;;;;;;;;;;-0.22;100.00;99110.63;1711478;83;20228;-82
2022/02/26 05:39:36;;;;;;;;;;;;;;;-0.24;100.00;99108.50;1711980;83;24813;-81
2022/02/26 05:42:02;;;;;;;;;;;;;;;-0.25;100.00;99110.22;1710844;83;21952;-82
2022/02/26 05:44:28;;;;;;;;;;;;;;;-0.28;100.00;99113.29;1714543;82;25981;-83
2022/02/26 05:46:54;;;;;;;;;;;;;;;-0.33;100.00;99123.65;1701608;82;24271;-83
2022/02/26 05:49:24;;;;;;;;;;;;;;;-0.36;100.00;99130.54;1685618;82;20207;-83
2022/02/26 05:51:50;;;;;;;;;;;;;;;-0.40;100.00;99138.75;1705013;82;24840;-84
2022/02/26 05:54:16;;;;;;;;;;;;;;;-0.38;100.00;99139.55;1710712;82;22029;-84
2022/02/26 05:56:42;;;;;;;;;;;;;;;-0.34;100.00;99142.95;1706611;83;25970;-83
2022/02/26 05:59:08;;;;;;;;;;;;;;;-0.28;100.00;99150.58;1693051;83;24522;-84
2022/02/26 06:01:35;;;;;;;;;;;;;;;-0.29;100.00;99158.72;1721078;81;20213;-84
2022/02/26 06:04:01;;;;;;;;;;;;;;;-0.32;100.00;99160.47;1708515;82;24817;-84
2022/02/26 06:06:33;;;;;;;;;;;;;;;-0.36;100.00;99157.11;1711329;83;22615;-84
2022/02/26 06:08:59;;;;;;;;;;;;;;;-0.37;100.00;99165.69;1706947;82;25989;-83
2022/02/26 06:11:25;;;;;;;;;;;;;;;-0.39;100.00;99167.45;1704124;83;24498;-83
2022/02/26 06:13:52;;;;;;;;;;;;;;;-0.40;100.00;99163.61;1710844;81;20597;-83
2022/02/26 06:16:19;;;;;;;;;;;;;;;-0.38;100.00;99171.70;1710750;82;24815;-84
2022/02/26 06:18:45;;;;;;;;;;;;;;;-0.36;100.00;99171.68;1709591;83;21928;-84
2022/02/26 06:21:13;;;;;;;;;;;;;;;-0.33;100.00;99184.08;1714271;82;26083;-84
2022/02/26 06:23:39;;;;;;;;;;;;;;;-0.27;100.00;99178.00;1706289;83;24499;-84
2022/02/26 06:26:05;;;;;;;;;;;;;;;-0.24;100.00;99184.37;1709354;82;20252;-83
2022/02/26 06:28:31;;;;;;;;;;;;;;;-0.22;100.00;99197.60;1707099;82;24786;-84
2022/02/26 06:31:02;;;;;;;;;;;;;;;-0.17;100.00;99193.27;1702563;82;22018;-83
2022/02/26 06:33:25;;;;;;;;;;;;;;;-0.13;100.00;99194.92;1696767;82;26855;-84
2022/02/26 06:35:52;;;;;;;;;;;;;;;-0.07;100.00;99199.13;1696961;84;24516;-84
2022/02/26 06:38:18;;;;;;;;;;;;;;;-0.05;100.00;99205.08;1694678;84;20492;-84
2022/02/26 06:40:47;;;;;;;;;;;;;;;0.00;100.00;99202.02;1692376;84;24984;-84
2022/02/26 06:43:17;;;;;;;;;;;;;;;0.07;100.00;99208.75;1699573;83;22165;-84
2022/02/26 06:45:43;;;;;;;;;;;;;;;0.18;100.00;99218.88;1687632;83;26050;-83
2022/02/26 06:48:09;;;;;;;;;;;;;;;0.27;100.00;99222.62;1696476;83;24393;-83
2022/02/26 06:50:35;;;;;;;;;;;;;;;0.37;100.00;99226.30;1695362;84;20303;-82
2022/02/26 06:53:02;;;;;;;;;;;;;;;0.41;100.00;99227.09;1701500;84;24750;-82
2022/02/26 06:55:28;;;;;;;;;;;;;;;0.49;100.00;99237.27;1694895;84;22015;-82
2022/02/26 06:57:54;;;;;;;;;;;;;;;0.55;100.00;99239.28;1684622;84;26127;-82
2022/02/26 07:00:20;;;;;;;;;;;;;;;0.58;100.00;99239.25;1689637;83;20445;-82
2022/02/26 07:02:46;;;;;;;;;;;;;;;0.62;100.00;99240.89;1695526;84;20234;-81
2022/02/26 07:05:12;;;;;;;;;;;;;;;0.69;100.00;99248.08;1700805;84;24872;-82
2022/02/26 07:07:38;;;;;;;;;;;;;;;0.73;100.00;99246.70;1692058;84;21948;-82
2022/02/26 07:10:04;;;;;;;;;;;;;;;0.75;100.00;99247.98;1689306;83;25947;-84
2022/02/26 07:12:30;;;;;;;;;;;;;;;0.78;100.00;99253.91;1697286;84;24716;-84
2022/02/26 07:14:57;;;;;;;;;;;;;;;0.82;100.00;99258.12;1699970;84;20223;-85
2022/02/26 07:17:23;;;;;;;;;;;;;;;0.85;100.00;99263.68;1696871;84;24698;-81
2022/02/26 07:19:49;;;;;;;;;;;;;;;0.91;100.00;99264.02;1694290;84;22026;-81
2022/02/26 07:22:16;;;;;;;;;;;;;;;0.98;100.00;99266.47;1692064;84;26206;-81
2022/02/26 07:24:43;;;;;;;;;;;;;;;1.02;100.00;99269.39;1700154;84;25300;-81
2022/02/26 07:27:13;;;;;;;;;;;;;;;1.10;100.00;99271.80;1692615;83;20245;-81
2022/02/26 07:29:37;;;;;;;;;;;;;;;1.21;100.00;99272.45;1698533;83;24825;-81
2022/02/26 07:32:03;;;;;;;;;;;;;;;1.32;100.00;99276.12;1693153;84;20265;-81
2022/02/26 07:34:30;;;;;;;;;;;;;;;1.41;100.00;99275.95;1701956;82;26032;-82
2022/02/26 07:36:56;;;;;;;;;;;;;;;1.47;100.00;99279.27;1698487;82;24464;-82
2022/02/26 07:39:22;;;;;;;;;;;;;;;1.51;100.00;99283.92;1699151;82;20617;-82
2022/02/26 07:41:48;;;;;;;;;;;;;;;1.54;100.00;99287.27;1707409;82;24825;-82
2022/02/26 07:44:14;;;;;;;;;;;;;;;1.56;100.00;99289.39;1705335;82;21939;-81
2022/02/26 07:46:40;;;;;;;;;;;;;;;1.59;100.00;99293.19;1705641;83;25935;-81
2022/02/26 07:49:06;;;;;;;;;;;;;;;1.64;100.00;99297.81;1705057;82;24499;-81
2022/02/26 07:51:33;;;;;;;;;;;;;;;1.70;100.00;99298.13;1704591;83;20228;-81
2022/02/26 07:53:59;;;;;;;;;;;;;;;1.76;100.00;99297.16;1702400;82;24892;-81
2022/02/26 07:56:25;;;;;;;;;;;;;;;1.80;100.00;99300.92;1704413;82;22001;-81
2022/02/26 07:58:52;;;;;;;;;;;;;;;1.84;100.00;99300.44;1704040;82;25474;-84
2022/02/26 08:01:18;;;;;;;;;;;;;;;1.84;100.00;99307.75;1697862;82;24483;-84
2022/02/26 08:03:44;;;;;;;;;;;;;;;1.85;100.00;99311.18;1709450;82;20245;-85
2022/02/26 08:06:16;;;;;;;;;;;;;;;1.84;100.00;99312.06;1705042;83;24815;-85
2022/02/26 08:08:42;;;;;;;;;;;;;;;1.82;100.00;99320.26;1702322;82;21993;-85
2022/02/26 08:11:08;;;;;;;;;;;;;;;1.84;100.00;99319.80;1705876;82;21141;-85
2022/02/26 08:13:34;;;;;;;;;;;;;;;1.83;100.00;99324.11;1698194;83;24570;-85
2022/02/26 08:16:00;;;;;;;;;;;;;;;1.86;100.00;99325.76;1703046;82;20358;-85
2022/02/26 08:18:26;;;;;;;;;;;;;;;1.88;100.00;99323.56;1698976;82;24746;-86
2022/02/26 08:20:52;;;;;;;;;;;;;;;1.90;100.00;99326.12;1705529;82;20835;-84
2022/02/26 08:23:19;;;;;;;;;;;;;;;1.93;100.00;99323.03;1709184;83;25989;-82
2022/02/26 08:25:45;;;;;;;;;;;;;;;1.96;100.00;99324.71;1696699;82;24171;-82
2022/02/26 08:28:11;;;;;;;;;;;;;;;2.01;100.00;99328.90;1702485;81;20222;-82
2022/02/26 08:30:37;;;;;;;;;;;;;;;2.04;100.00;99333.13;1704902;83;25405;-82
2022/02/26 08:33:03;;;;;;;;;;;;;;;2.05;100.00;99333.10;1708069;81;20259;-85
2022/02/26 08:35:30;;;;;;;;;;;;;;;2.05;100.00;99338.70;1696750;82;25990;-85
2022/02/26 08:37:56;;;;;;;;;;;;;;;2.09;100.00;99340.33;1700123;82;24957;-85
2022/02/26 08:40:22;;;;;;;;;;;;;;;2.10;100.00;99343.33;1698741;83;20192;-85
2022/02/26 08:42:49;;;;;;;;;;;;;;;2.15;100.00;99340.64;1698235;82;24836;-84
2022/02/26 08:45:16;;;;;;;;;;;;;;;2.19;100.00;99343.55;1697990;82;22072;-81
2022/02/26 08:47:42;;;;;;;;;;;;;;;2.20;100.00;99351.28;1702568;83;26137;-81
2022/02/26 08:50:09;;;;;;;;;;;;;;;2.21;100.00;99349.55;1701453;83;24465;-81
2022/02/26 08:52:37;;;;;;;;;;;;;;;2.22;100.00;99347.38;1701659;83;20192;-81
2022/02/26 08:55:04;;;;;;;;;;;;;;;2.23;100.00;99347.80;1683370;82;24740;-81
2022/02/26 08:57:30;;;;;;;;;;;;;;;2.24;100.00;99349.47;1703107;82;22045;-81
2022/02/26 08:59:56;;;;;;;;;;;;;;;2.28;100.00;99358.88;1687103;83;26055;-81
2022/02/26 09:02:22;;;;;;;;;;;;;;;2.33;100.00;99355.75;1709930;83;24389;-81
2022/02/26 09:04:49;;;;;;;;;;;;;;;2.38;100.00;99358.64;1701853;82;20243;-81
2022/02/26 09:07:15;;;;;;;;;;;;;;;2.41;100.00;99366.74;1702132;83;24956;-81
2022/02/26 09:09:42;;;;;;;;;;;;;;;2.42;100.00;99359.41;1700772;83;21978;-81
2022/02/26 09:12:09;;;;;;;;;;;;;;;2.44;100.00;99363.67;1708714;82;26298;-81
2022/02/26 09:14:35;;;;;;;;;;;;;;;2.48;100.00;99359.27;1701468;82;24581;-81
2022/02/26 09:17:02;;;;;;;;;;;;;;;2.55;100.00;99359.99;1697646;83;20243;-81
2022/02/26 09:19:28;;;;;;;;;;;;;;;2.62;100.00;99368.02;1707473;82;24842;-80
2022/02/26 09:21:54;;;;;;;;;;;;;;;2.62;100.00;99364.97;1702173;83;22059;-81
2022/02/26 09:24:21;;;;;;;;;;;;;;;2.64;100.00;99367.08;1706865;83;26045;-80
2022/02/26 09:26:47;;;;;;;;;;;;;;;2.69;100.00;99368.27;1694554;83;24574;-82
2022/02/26 09:29:14;;;;;;;;;;;;;;;2.79;100.00;99377.05;1700817;82;20220;-82
2022/02/26 09:31:41;;;;;;;;;;;;;;;2.88;100.00;99378.16;1708381;82;24778;-81
2022/02/26 09:34:10;;;;;;;;;;;;;;;2.96;100.00;99384.41;1716799;81;21909;-81
2022/02/26 09:36:36;;;;;;;;;;;;;;;3.06;100.00;99388.91;1701492;82;25998;-81
2022/02/26 09:39:04;;;;;;;;;;;;;;;3.06;100.00;99392.35;1706601;83;20272;-81
2022/02/26 09:41:31;;;;;;;;;;;;;;;3.06;100.00;99391.05;1698019;81;20169;-81
2022/02/26 09:43:58;;;;;;;;;;;;;;;3.08;100.00;99397.05;1686234;83;24883;-81
2022/02/26 09:46:24;;;;;;;;;;;;;;;3.08;100.00;99396.20;1707463;82;22009;-82
2022/02/26 09:48:51;;;;;;;;;;;;;;;3.08;100.00;99401.38;1704729;83;21130;-82
2022/02/26 09:51:17;;;;;;;;;;;;;;;3.06;100.00;99405.72;1709079;82;24695;-82
2022/02/26 09:53:45;;;;;;;;;;;;;;;3.06;100.00;99408.30;1707951;82;20173;-82
2022/02/26 09:56:14;;;;;;;;;;;;;;;3.00;100.00;99413.17;1715650;82;25509;-83
2022/02/26 09:58:40;;;;;;;;;;;;;;;2.98;100.00;99412.83;1702175;82;21948;-83
2022/02/26 10:01:07;;;;;;;;;;;;;;;2.94;100.00;99411.63;1701965;82;26082;-83
2022/02/26 10:03:35;;;;;;;;;;;;;;;2.92;100.00;99415.96;1660965;83;25297;-83
2022/02/26 10:06:16;;;;;;;;;;;;;;;2.97;100.00;99420.17;1684210;83;20214;-83
2022/02/26 10:08:49;;;;;;;;;;;;;;;3.04;100.00;99420.00;1713825;82;25686;-83
2022/02/26 10:11:29;;;;;;;;;;;;;;;3.05;100.00;99424.73;1705437;82;22074;-83
2022/02/26 10:14:03;;;;;;;;;;;;;;;3.06;100.00;99425.11;1712213;82;26103;-83
2022/02/26 10:16:44;;;;;;;;;;;;;;;3.05;100.00;99421.70;1698317;82;24425;-83
2022/02/26 10:19:10;;;;;;;;;;;;;;;3.11;100.00;99429.77;1710556;82;20222;-83
2022/02/26 10:21:41;;;;;;;;;;;;;;;3.20;100.00;99429.09;1707042;82;24802;-83
2022/02/26 10:24:06;;;;;;;;;;;;;;;3.26;100.00;99429.38;1709134;82;22657;-83
2022/02/26 10:26:32;;;;;;;;;;;;;;;3.22;100.00;99432.91;1711757;82;26149;-86
2022/02/26 10:29:11;;;;;;;;;;;;;;;3.16;100.00;99433.94;1706793;83;25104;-86
2022/02/26 10:31:45;;;;;;;;;;;;;;;3.11;100.00;99438.81;1710965;82;20597;-85
2022/02/26 10:34:13;;;;;;;;;;;;;;;3.09;100.00;99441.42;1712746;81;24732;-85
2022/02/26 10:36:41;;;;;;;;;;;;;;;3.09;100.00;99445.30;1707272;83;22089;-86
2022/02/26 10:39:07;;;;;;;;;;;;;;;3.09;100.00;99452.21;1702862;83;26179;-85
2022/02/26 10:41:35;;;;;;;;;;;;;;;3.11;100.00;99445.28;1708419;82;24479;-85
2022/02/26 10:44:03;;;;;;;;;;;;;;;3.12;100.00;99449.54;1702779;83;20218;-85
2022/02/26 10:46:33;;;;;;;;;;;;;;;3.16;100.00;99449.45;1703228;83;24309;-82
2022/02/26 10:49:01;;;;;;;;;;;;;;;3.25;100.00;99453.55;1708514;82;21999;-86
2022/02/26 10:51:32;;;;;;;;;;;;;;;3.41;100.00;99456.16;1717085;82;26094;-87
2022/02/26 10:53:59;;;;;;;;;;;;;;;3.53;100.00;99454.58;1699981;82;24468;-82
2022/02/26 10:56:39;;;;;;;;;;;;;;;3.60;100.00;99447.03;1699850;82;20219;-83
2022/02/26 10:59:06;;;;;;;;;;;;;;;3.70;100.00;99456.29;1717762;81;25119;-86
2022/02/26 11:01:33;;;;;;;;;;;;;;;3.79;100.00;99458.63;1683019;83;21580;-86
2022/02/26 11:04:01;;;;;;;;;;;;;;;3.83;100.00;99457.24;1710223;82;27207;-86
2022/02/26 11:06:28;;;;;;;;;;;;;;;3.87;100.00;99458.88;1711083;82;25255;-86
2022/02/26 11:08:55;;;;;;;;;;;;;;;3.92;100.00;99457.02;1702607;82;20498;-86
2022/02/26 11:11:23;;;;;;;;;;;;;;;3.93;100.00;99456.14;1709667;83;24830;-85
2022/02/26 11:13:51;;;;;;;;;;;;;;;3.98;100.00;99451.68;1707298;83;22771;-85
2022/02/26 11:16:18;;;;;;;;;;;;;;;4.09;100.00;99450.95;1703887;82;26584;-85
2022/02/26 11:18:45;;;;;;;;;;;;;;;4.24;100.00;99454.84;1703244;83;24759;-85
2022/02/26 11:21:14;;;;;;;;;;;;;;;4.32;100.00;99457.61;1700170;83;20185;-85
2022/02/26 11:23:45;;;;;;;;;;;;;;;4.35;100.00;99460.57;1699536;83;24880;-85
2022/02/26 11:26:11;;;;;;;;;;;;;;;4.37;100.00;99457.47;1705782;82;22113;-85
2022/02/26 11:28:40;;;;;;;;;;;;;;;4.34;100.00;99457.58;1704154;82;26701;-85
2022/02/26 11:31:08;;;;;;;;;;;;;;;4.30;100.00;99454.23;1709691;82;24531;-87
2022/02/26 11:33:38;;;;;;;;;;;;;;;4.35;100.00;99454.09;1710000;83;20230;-87
2022/02/26 11:36:05;;;;;;;;;;;;;;;4.41;100.00;99460.41;1707662;83;24936;-85
2022/02/26 11:38:36;;;;;;;;;;;;;;;4.47;100.00;99457.64;1710237;82;21942;-86
2022/02/26 11:41:22;;;;;;;;;;;;;;;4.52;100.00;99456.61;1712220;83;27028;-87
2022/02/26 11:43:56;;;;;;;;;;;;;;;4.59;100.00;99455.96;1704801;82;25392;-87
2022/02/26 11:46:25;;;;;;;;;;;;;;;4.59;100.00;99454.66;1707524;82;20192;-87
2022/02/26 11:48:52;;;;;;;;;;;;;;;4.63;100.00;99453.26;1702382;83;24896;-87
2022/02/26 11:51:18;;;;;;;;;;;;;;;4.75;100.00;99455.05;1705835;83;22222;-86
2022/02/26 11:53:45;;;;;;;;;;;;;;;4.82;100.00;99456.13;1706715;82;26030;-87
2022/02/26 11:56:12;;;;;;;;;;;;;;;4.87;100.00;99455.98;1698295;83;24441;-87
2022/02/26 11:58:38;;;;;;;;;;;;;;;4.86;100.00;99454.28;1700108;82;20295;-88
2022/02/26 12:01:11;;;;;;;;;;;;;;;4.77;100.00;99449.39;1706860;82;24982;-87
2022/02/26 12:03:42;;;;;;;;;;;;;;;4.79;100.00;99460.57;1703016;82;22061;-87
2022/02/26 12:06:13;;;;;;;;;;;;;;;4.80;100.00;99457.91;1696527;83;26766;-87
2022/02/26 12:08:41;;;;;;;;;;;;;;;4.88;100.00;99455.09;1710828;82;24306;-87
2022/02/26 12:11:08;;;;;;;;;;;;;;;4.84;100.00;99459.54;1710636;82;20311;-87
2022/02/26 12:13:36;;;;;;;;;;;;;;;4.76;100.00;99455.02;1705045;83;24808;-86
2022/02/26 12:16:20;;;;;;;;;;;;;;;4.84;100.00;99459.98;1708909;82;22051;-86
2022/02/26 12:18:45;;;;;;;;;;;;;;;4.96;100.00;99457.84;1713639;82;26668;-86
2022/02/26 12:21:13;;;;;;;;;;;;;;;5.02;100.00;99451.17;1699172;83;24430;-86
2022/02/26 12:23:58;;;;;;;;;;;;;;;4.90;100.00;99454.17;1712109;82;20257;-86
2022/02/26 12:26:26;;;;;;;;;;;;;;;4.87;100.00;99451.66;1708982;83;24959;-86
2022/02/26 12:28:52;;;;;;;;;;;;;;;4.68;100.00;99451.82;1690518;82;22247;-87
2022/02/26 12:31:18;;;;;;;;;;;;;;;4.60;100.00;99450.73;1684759;83;26162;-87
2022/02/26 12:33:45;;;;;;;;;;;;;;;4.53;100.00;99449.21;1716456;82;24468;-86
2022/02/26 12:36:13;;;;;;;;;;;;;;;4.49;100.00;99451.50;1708845;81;20237;-86
2022/02/26 12:38:47;;;;;;;;;;;;;;;4.41;100.00;99450.89;1710526;82;25010;-86
2022/02/26 12:41:28;;;;;;;;;;;;;;;4.44;100.00;99444.75;1705771;83;21969;-85
2022/02/26 12:43:55;;;;;;;;;;;;;;;4.57;100.00;99445.66;1660550;82;26867;-86